createdAt,value
2023-03-10T00:00:01.866Z,46.81
2023-03-10T00:02:33.270Z,47.36
2023-03-10T00:04:59.836Z,46.80
2023-03-10T00:07:26.674Z,47.56
2023-03-10T00:09:53.265Z,46.56
2023-03-10T00:12:19.899Z,47.11
2023-03-10T00:14:46.391Z,46.60
2023-03-10T00:17:12.935Z,46.60
2023-03-10T00:19:39.497Z,46.83
2023-03-10T00:22:06.499Z,46.55
2023-03-10T00:24:33.151Z,47.33
2023-03-10T00:26:59.639Z,46.72
2023-03-10T00:29:26.238Z,46.92
2023-03-10T00:31:52.739Z,47.03
2023-03-10T00:34:19.268Z,46.91
2023-03-10T00:36:46.037Z,46.57
2023-03-10T00:39:12.562Z,47.27
2023-03-10T00:41:39.324Z,47.04
2023-03-10T00:44:09.459Z,46.74
2023-03-10T00:46:38.607Z,47.22
2023-03-10T00:49:11.959Z,47.57
2023-03-10T00:51:38.495Z,46.97
2023-03-10T00:54:05.031Z,46.73
2023-03-10T00:56:31.574Z,47.26
2023-03-10T00:58:59.944Z,46.85
2023-03-10T01:01:32.950Z,46.82
2023-03-10T01:04:02.732Z,46.68
2023-03-10T01:06:29.260Z,46.61
2023-03-10T01:08:55.823Z,47.39
2023-03-10T01:11:25.175Z,47.47
2023-03-10T01:13:52.983Z,46.52
2023-03-10T01:16:19.860Z,47.09
2023-03-10T01:18:46.462Z,46.64
2023-03-10T01:21:28.492Z,47.45
2023-03-10T01:23:55.455Z,46.77
2023-03-10T01:26:22.061Z,46.84
2023-03-10T01:28:49.425Z,47.16
2023-03-10T01:31:17.040Z,47.38
2023-03-10T01:33:43.964Z,47.04
2023-03-10T01:36:12.824Z,47.56
2023-03-10T01:38:39.881Z,47.23
2023-03-10T01:41:06.650Z,46.83
2023-03-10T01:43:35.803Z,47.40
2023-03-10T01:46:02.286Z,46.66
2023-03-10T01:48:32.783Z,47.17
2023-03-10T01:50:59.887Z,47.47
2023-03-10T01:53:28.687Z,46.76
2023-03-10T01:55:59.304Z,47.13
2023-03-10T01:58:32.596Z,47.12
2023-03-10T02:00:59.129Z,46.96
2023-03-10T02:03:37.315Z,47.40
2023-03-10T02:06:10.995Z,47.31
2023-03-10T02:08:44.294Z,46.52
2023-03-10T02:11:12.052Z,46.99
2023-03-10T02:13:38.563Z,47.74
2023-03-10T02:16:05.677Z,47.02
2023-03-10T02:18:32.393Z,46.69
2023-03-10T02:21:13.853Z,46.67
2023-03-10T02:24:01.745Z,47.38
2023-03-10T02:26:34.274Z,47.40
2023-03-10T02:29:03.511Z,47.55
2023-03-10T02:31:31.526Z,46.69
2023-03-10T02:33:58.505Z,46.59
2023-03-10T02:36:25.366Z,46.77
2023-03-10T02:38:52.029Z,47.45
2023-03-10T02:41:26.254Z,47.75
2023-03-10T02:43:54.958Z,46.85
2023-03-10T02:46:22.494Z,47.63
2023-03-10T02:48:49.032Z,47.54
2023-03-10T02:51:26.161Z,47.51
2023-03-10T02:53:52.680Z,46.76
2023-03-10T02:56:19.253Z,47.18
2023-03-10T02:58:45.813Z,46.86
2023-03-10T03:01:12.742Z,47.63
2023-03-10T03:03:39.852Z,47.51
2023-03-10T03:06:06.860Z,47.30
2023-03-10T03:08:33.423Z,47.29
2023-03-10T03:11:01.113Z,47.15
2023-03-10T03:13:27.939Z,46.87
2023-03-10T03:15:54.439Z,47.26
2023-03-10T03:18:21.106Z,46.73
2023-03-10T03:20:48.074Z,47.18
2023-03-10T03:23:14.596Z,47.13
2023-03-10T03:25:41.966Z,47.51
2023-03-10T03:28:10.762Z,46.81
2023-03-10T03:30:37.960Z,47.43
2023-03-10T03:33:05.921Z,47.56
2023-03-10T03:35:34.882Z,46.83
2023-03-10T03:38:02.048Z,47.51
2023-03-10T03:40:33.570Z,47.71
2023-03-10T03:43:00.672Z,47.63
2023-03-10T03:45:29.546Z,47.77
2023-03-10T03:47:56.222Z,47.54
2023-03-10T03:50:23.625Z,47.14
2023-03-10T03:52:50.643Z,47.54
2023-03-10T03:55:18.282Z,47.64
2023-03-10T03:57:45.890Z,47.45
2023-03-10T04:00:20.577Z,47.08
2023-03-10T04:02:47.236Z,46.83
2023-03-10T04:05:14.000Z,47.23
2023-03-10T04:07:41.887Z,47.49
2023-03-10T04:10:12.172Z,47.65
2023-03-10T04:12:38.708Z,47.56
2023-03-10T04:15:07.097Z,46.84
2023-03-10T04:17:33.825Z,46.95
2023-03-10T04:20:06.917Z,47.32
2023-03-10T04:22:34.474Z,47.32
2023-03-10T04:25:00.985Z,47.60
2023-03-10T04:27:27.714Z,47.17
2023-03-10T04:29:54.248Z,46.81
2023-03-10T04:32:20.755Z,47.37
2023-03-10T04:34:47.324Z,47.55
2023-03-10T04:37:13.853Z,47.50
2023-03-10T04:39:40.343Z,47.64
2023-03-10T04:42:07.246Z,46.95
2023-03-10T04:44:34.031Z,46.67
2023-03-10T04:47:00.627Z,47.10
2023-03-10T04:49:27.662Z,47.35
2023-03-10T04:51:54.709Z,46.97
2023-03-10T04:54:21.202Z,46.98
2023-03-10T04:56:47.689Z,47.40
2023-03-10T04:59:14.165Z,47.27
2023-03-10T05:01:40.909Z,48.04
2023-03-10T05:04:07.587Z,47.82
2023-03-10T05:06:34.205Z,47.84
2023-03-10T05:09:03.443Z,47.53
2023-03-10T05:11:30.231Z,47.91
2023-03-10T05:13:56.710Z,46.92
2023-03-10T05:16:23.547Z,47.32
2023-03-10T05:18:50.204Z,46.99
2023-03-10T05:21:16.916Z,47.12
2023-03-10T05:23:43.568Z,46.32
2023-03-10T05:26:11.784Z,46.77
2023-03-10T05:28:38.779Z,46.13
2023-03-10T05:31:11.612Z,45.89
2023-03-10T05:33:38.105Z,46.15
2023-03-10T05:36:10.042Z,46.27
2023-03-10T05:38:37.335Z,46.54
2023-03-10T05:41:08.791Z,46.18
2023-03-10T05:43:35.378Z,45.89
2023-03-10T05:46:01.991Z,45.96
2023-03-10T05:48:28.957Z,46.44
2023-03-10T05:51:07.247Z,46.29
2023-03-10T05:53:35.216Z,46.32
2023-03-10T05:56:06.999Z,45.74
2023-03-10T05:58:33.623Z,45.98
2023-03-10T06:01:00.140Z,45.75
2023-03-10T06:03:28.699Z,45.63
2023-03-10T06:05:59.156Z,46.04
2023-03-10T06:08:28.054Z,45.74
2023-03-10T06:10:54.930Z,45.91
2023-03-10T06:13:21.657Z,46.34
2023-03-10T06:15:53.098Z,46.36
2023-03-10T06:18:20.107Z,46.37
2023-03-10T06:20:48.044Z,47.24
2023-03-10T06:23:16.057Z,47.49
2023-03-10T06:25:42.727Z,47.53
2023-03-10T06:28:09.873Z,47.45
2023-03-10T06:30:36.675Z,47.19
2023-03-10T06:33:03.535Z,47.96
2023-03-10T06:35:31.913Z,47.42
2023-03-10T06:37:58.475Z,47.99
2023-03-10T06:40:25.030Z,48.25
2023-03-10T06:42:51.570Z,48.22
2023-03-10T06:45:18.266Z,48.43
2023-03-10T06:47:45.258Z,48.35
2023-03-10T06:50:13.140Z,48.25
2023-03-10T06:52:39.777Z,48.33
2023-03-10T06:55:06.939Z,48.15
2023-03-10T06:57:33.966Z,48.42
2023-03-10T07:00:00.531Z,48.49
2023-03-10T07:02:27.038Z,48.33
2023-03-10T07:04:53.627Z,48.19
2023-03-10T07:07:20.240Z,48.19
2023-03-10T07:09:47.001Z,47.60
2023-03-10T07:12:16.338Z,47.70
2023-03-10T07:14:42.877Z,47.64
2023-03-10T07:17:14.805Z,47.38
2023-03-10T07:19:41.277Z,46.49
2023-03-10T07:22:09.705Z,46.55
2023-03-10T07:24:37.773Z,46.73
2023-03-10T07:27:04.680Z,46.09
2023-03-10T07:29:34.411Z,45.84
2023-03-10T07:32:00.982Z,45.30
2023-03-10T07:34:27.474Z,45.64
2023-03-10T07:36:54.064Z,46.06
2023-03-10T07:39:21.086Z,45.75
2023-03-10T07:41:47.602Z,45.06
2023-03-10T07:44:15.301Z,45.46
2023-03-10T07:46:41.985Z,45.06
2023-03-10T07:49:08.560Z,45.39
2023-03-10T07:51:35.574Z,45.06
2023-03-10T07:54:02.126Z,45.04
2023-03-10T07:56:28.744Z,45.22
2023-03-10T07:58:55.270Z,45.87
2023-03-10T08:01:22.308Z,45.61
2023-03-10T08:03:48.944Z,45.85
2023-03-10T08:06:21.917Z,45.29
2023-03-10T08:08:48.474Z,45.13
2023-03-10T08:11:15.414Z,44.70
2023-03-10T08:13:42.220Z,45.24
2023-03-10T08:16:08.829Z,44.04
2023-03-10T08:18:35.435Z,44.51
2023-03-10T08:21:05.386Z,44.33
2023-03-10T08:23:32.468Z,44.81
2023-03-10T08:26:12.412Z,44.19
2023-03-10T08:28:39.186Z,44.51
2023-03-10T08:31:17.064Z,44.08
2023-03-10T08:33:44.822Z,43.54
2023-03-10T08:36:13.502Z,43.90
2023-03-10T08:38:41.160Z,43.53
2023-03-10T08:41:23.489Z,43.99
2023-03-10T08:43:51.762Z,43.74
2023-03-10T08:46:20.537Z,44.33
2023-03-10T08:48:47.474Z,43.60
2023-03-10T08:51:16.112Z,43.61
2023-03-10T08:53:44.679Z,43.76
2023-03-10T08:56:11.255Z,44.07
2023-03-10T08:58:37.754Z,43.27
2023-03-10T09:01:05.032Z,43.47
2023-03-10T09:03:32.077Z,43.44
2023-03-10T09:05:58.764Z,43.21
2023-03-10T09:08:27.529Z,43.11
2023-03-10T09:10:54.949Z,43.98
2023-03-10T09:13:22.125Z,43.47
2023-03-10T09:15:50.495Z,43.70
2023-03-10T09:18:17.342Z,43.78
2023-03-10T09:20:45.056Z,43.72
2023-03-10T09:23:13.904Z,43.77
2023-03-10T09:25:40.485Z,43.83
2023-03-10T09:28:11.561Z,43.35
2023-03-10T09:30:40.483Z,43.48
2023-03-10T09:33:13.440Z,43.15
2023-03-10T09:35:41.866Z,43.71
2023-03-10T09:38:14.835Z,43.70
2023-03-10T09:41:06.216Z,42.90
2023-03-10T09:43:39.179Z,43.13
2023-03-10T09:46:19.663Z,42.79
2023-03-10T09:49:04.656Z,43.14
2023-03-10T09:51:31.614Z,42.98
2023-03-10T09:54:24.245Z,43.38
2023-03-10T09:56:51.271Z,43.52
2023-03-10T09:59:40.476Z,43.47
2023-03-10T10:02:24.051Z,43.28
2023-03-10T10:04:56.243Z,42.99
2023-03-10T10:07:27.332Z,42.82
2023-03-10T10:10:03.043Z,43.23
2023-03-10T10:12:29.551Z,43.16
2023-03-10T10:15:00.038Z,43.29
2023-03-10T10:17:55.031Z,42.84
2023-03-10T10:20:35.543Z,42.86
2023-03-10T10:23:02.151Z,43.44
2023-03-10T10:25:32.391Z,43.37
2023-03-10T10:28:01.112Z,43.33
2023-03-10T10:30:39.930Z,43.57
2023-03-10T10:33:11.903Z,43.52
2023-03-10T10:36:00.636Z,43.95
2023-03-10T10:38:30.177Z,43.97
2023-03-10T10:41:07.731Z,43.77
2023-03-10T10:43:48.382Z,44.41
2023-03-10T10:46:23.055Z,44.30
2023-03-10T10:48:51.467Z,44.35
2023-03-10T10:51:29.615Z,44.65
2023-03-10T10:54:00.991Z,44.85
2023-03-10T10:56:28.921Z,44.55
2023-03-10T10:59:19.675Z,44.77
2023-03-10T11:01:53.857Z,44.36
2023-03-10T11:04:22.030Z,44.89
2023-03-10T11:06:50.125Z,44.88
2023-03-10T11:09:19.948Z,44.77
2023-03-10T11:11:58.667Z,44.93
2023-03-10T11:14:53.395Z,45.94
2023-03-10T11:17:30.174Z,45.95
2023-03-10T11:20:08.784Z,46.50
2023-03-10T11:22:53.597Z,46.09
2023-03-10T11:25:36.948Z,45.78
2023-03-10T11:28:18.909Z,46.30
2023-03-10T11:31:11.080Z,45.62
2023-03-10T11:33:48.885Z,46.13
2023-03-10T11:36:55.937Z,45.35
2023-03-10T11:39:39.389Z,45.07
2023-03-10T11:42:31.932Z,45.62
2023-03-10T11:45:19.238Z,44.98
2023-03-10T11:47:54.949Z,44.60
2023-03-10T11:50:33.131Z,44.69
2023-03-10T11:53:17.574Z,44.27
2023-03-10T11:55:45.349Z,43.93
2023-03-10T11:58:22.136Z,43.98
2023-03-10T12:00:52.706Z,44.55
2023-03-10T12:03:40.100Z,44.22
2023-03-10T12:06:14.526Z,43.88
2023-03-10T12:08:42.117Z,44.59
2023-03-10T12:11:16.843Z,44.53
2023-03-10T12:13:47.815Z,44.79
2023-03-10T12:16:20.835Z,44.52
2023-03-10T12:18:47.763Z,44.26
2023-03-10T12:21:24.783Z,45.11
2023-03-10T12:23:53.694Z,45.19
2023-03-10T12:26:38.457Z,44.85
2023-03-10T12:29:32.563Z,45.80
2023-03-10T12:31:59.386Z,45.54
2023-03-10T12:34:29.147Z,45.69
2023-03-10T12:37:08.439Z,45.27
2023-03-10T12:39:42.781Z,46.07
2023-03-10T12:42:27.371Z,45.59
2023-03-10T12:45:08.826Z,46.36
2023-03-10T12:47:57.798Z,45.78
2023-03-10T12:50:49.315Z,46.89
2023-03-10T12:53:30.984Z,45.68
2023-03-10T12:56:38.412Z,46.47
2023-03-10T12:59:24.170Z,46.53
2023-03-10T13:01:59.694Z,45.51
2023-03-10T13:04:27.636Z,45.62
2023-03-10T13:07:03.801Z,45.23
2023-03-10T13:09:42.259Z,45.19
2023-03-10T13:12:17.691Z,45.78
2023-03-10T13:14:44.433Z,44.93
2023-03-10T13:17:24.637Z,45.10
2023-03-10T13:20:08.548Z,44.44
2023-03-10T13:22:35.855Z,45.01
2023-03-10T13:25:14.441Z,44.34
2023-03-10T13:27:40.963Z,44.28
2023-03-10T13:30:10.535Z,45.08
2023-03-10T13:32:37.141Z,45.61
2023-03-10T13:35:22.269Z,44.61
2023-03-10T13:38:03.862Z,45.25
2023-03-10T13:40:30.421Z,45.80
2023-03-10T13:42:56.961Z,45.51
2023-03-10T13:45:28.295Z,45.92
2023-03-10T13:47:56.033Z,46.56
2023-03-10T13:50:23.949Z,45.75
2023-03-10T13:52:57.466Z,45.96
2023-03-10T13:55:24.497Z,46.67
2023-03-10T13:57:51.716Z,46.72
2023-03-10T14:00:21.310Z,46.99
2023-03-10T14:02:50.268Z,47.21
2023-03-10T14:05:47.462Z,47.43
2023-03-10T14:08:40.223Z,47.08
2023-03-10T14:11:41.125Z,47.38
2023-03-10T14:14:10.256Z,46.88
2023-03-10T14:16:51.338Z,47.10
2023-03-10T14:19:55.014Z,46.46
2023-03-10T14:22:24.826Z,46.57
2023-03-10T14:24:51.418Z,46.18
2023-03-10T14:27:17.984Z,46.78
2023-03-10T14:29:52.100Z,45.99
2023-03-10T14:32:19.158Z,46.61
2023-03-10T14:34:47.339Z,45.58
2023-03-10T14:37:14.234Z,46.43
2023-03-10T14:39:41.177Z,46.29
2023-03-10T14:42:20.702Z,45.25
2023-03-10T14:44:47.974Z,45.85
2023-03-10T14:47:15.160Z,45.48
2023-03-10T14:49:41.905Z,45.37
2023-03-10T14:52:17.942Z,45.18
2023-03-10T14:54:44.640Z,45.55
2023-03-10T14:57:13.573Z,45.61
2023-03-10T14:59:40.634Z,45.56
2023-03-10T15:02:25.034Z,45.13
2023-03-10T15:04:51.676Z,45.84
2023-03-10T15:07:18.251Z,45.39
2023-03-10T15:09:45.181Z,45.62
2023-03-10T15:12:15.138Z,45.72
2023-03-10T15:14:46.177Z,45.97
2023-03-10T15:17:12.802Z,47.00
2023-03-10T15:19:39.329Z,47.16
2023-03-10T15:22:05.839Z,47.22
2023-03-10T15:24:32.369Z,47.34
2023-03-10T15:26:58.905Z,47.29
2023-03-10T15:29:25.574Z,47.01
2023-03-10T15:31:52.140Z,47.02
2023-03-10T15:34:20.313Z,46.63
2023-03-10T15:36:47.651Z,46.25
2023-03-10T15:39:22.043Z,46.22
2023-03-10T15:41:55.764Z,45.59
2023-03-10T15:44:22.290Z,46.21
2023-03-10T15:46:52.671Z,45.94
2023-03-10T15:49:19.266Z,45.64
2023-03-10T15:51:45.895Z,44.78
2023-03-10T15:54:12.847Z,45.21
2023-03-10T15:56:39.801Z,44.89
2023-03-10T15:59:08.136Z,45.05
2023-03-10T16:01:35.147Z,44.72
2023-03-10T16:04:05.682Z,44.60
2023-03-10T16:06:33.783Z,44.25
2023-03-10T16:09:01.542Z,44.30
2023-03-10T16:11:28.581Z,43.47
2023-03-10T16:13:55.285Z,43.73
2023-03-10T16:16:23.745Z,43.50
2023-03-10T16:18:50.888Z,43.46
2023-03-10T16:21:18.105Z,43.25
2023-03-10T16:23:44.982Z,42.46
2023-03-10T16:26:21.280Z,42.88
2023-03-10T16:28:50.636Z,42.67
2023-03-10T16:31:19.828Z,42.14
2023-03-10T16:33:48.198Z,42.19
2023-03-10T16:36:17.331Z,42.47
2023-03-10T16:38:44.028Z,42.52
2023-03-10T16:41:11.668Z,41.99
2023-03-10T16:43:38.927Z,41.91
2023-03-10T16:46:25.260Z,41.69
2023-03-10T16:48:53.865Z,41.12
2023-03-10T16:51:30.788Z,41.61
2023-03-10T16:54:02.866Z,41.10
2023-03-10T16:56:30.908Z,40.85
2023-03-10T16:58:57.730Z,41.48
2023-03-10T17:01:24.978Z,40.90
2023-03-10T17:03:53.071Z,41.08
2023-03-10T17:06:23.748Z,40.56
2023-03-10T17:08:51.632Z,41.17
2023-03-10T17:11:32.871Z,40.89
2023-03-10T17:14:01.954Z,40.44
2023-03-10T17:16:30.107Z,41.17
2023-03-10T17:18:58.942Z,40.59
2023-03-10T17:21:28.276Z,40.93
2023-03-10T17:23:55.132Z,40.93
2023-03-10T17:26:21.938Z,40.92
2023-03-10T17:28:51.068Z,40.84
2023-03-10T17:31:23.381Z,40.81
2023-03-10T17:33:50.338Z,41.08
2023-03-10T17:36:17.047Z,40.19
2023-03-10T17:38:44.229Z,40.28
2023-03-10T17:41:12.889Z,40.73
2023-03-10T17:43:40.213Z,40.01
2023-03-10T17:46:10.800Z,40.30
2023-03-10T17:48:37.523Z,40.58
2023-03-10T17:51:05.325Z,40.76
2023-03-10T17:53:31.956Z,40.89
2023-03-10T17:56:02.171Z,40.23
2023-03-10T17:58:28.732Z,40.62
2023-03-10T18:00:55.238Z,41.02
2023-03-10T18:03:22.151Z,41.34
2023-03-10T18:05:48.848Z,41.75
2023-03-10T18:08:15.487Z,41.93
2023-03-10T18:10:42.305Z,42.12
2023-03-10T18:13:11.248Z,41.79
2023-03-10T18:15:38.301Z,42.10
2023-03-10T18:18:04.927Z,42.07
2023-03-10T18:20:31.783Z,42.27
2023-03-10T18:22:59.189Z,42.08
2023-03-10T18:25:25.757Z,41.87
2023-03-10T18:27:52.321Z,41.86
2023-03-10T18:30:20.321Z,42.18
2023-03-10T18:32:46.914Z,42.03
2023-03-10T18:35:13.544Z,41.38
2023-03-10T18:37:40.079Z,41.14
2023-03-10T18:40:09.136Z,41.33
2023-03-10T18:42:35.778Z,40.31
2023-03-10T18:45:02.762Z,40.69
2023-03-10T18:47:29.279Z,40.04
2023-03-10T18:49:55.881Z,40.44
2023-03-10T18:52:22.597Z,40.34
2023-03-10T18:54:49.208Z,40.43
2023-03-10T18:57:15.857Z,40.16
2023-03-10T18:59:42.420Z,39.50
2023-03-10T19:02:14.636Z,40.02
2023-03-10T19:04:41.301Z,39.59
2023-03-10T19:07:08.256Z,40.22
2023-03-10T19:09:34.816Z,39.36
2023-03-10T19:12:04.335Z,39.59
2023-03-10T19:14:30.930Z,39.51
2023-03-10T19:16:57.419Z,39.64
2023-03-10T19:19:24.173Z,39.56
2023-03-10T19:21:50.696Z,39.31
2023-03-10T19:24:17.263Z,39.73
2023-03-10T19:26:43.790Z,39.41
2023-03-10T19:29:10.456Z,39.00
2023-03-10T19:31:37.197Z,39.55
2023-03-10T19:34:03.975Z,39.60
2023-03-10T19:36:30.629Z,39.05
2023-03-10T19:38:57.196Z,39.66
2023-03-10T19:41:23.845Z,39.34
2023-03-10T19:43:52.695Z,39.23
2023-03-10T19:46:20.091Z,39.40
2023-03-10T19:48:47.107Z,39.85
2023-03-10T19:51:26.772Z,39.83
2023-03-10T19:53:55.329Z,40.05
2023-03-10T19:56:23.243Z,40.93
2023-03-10T19:58:53.342Z,40.55
2023-03-10T20:01:24.319Z,40.71
2023-03-10T20:03:55.997Z,40.57
2023-03-10T20:06:23.043Z,41.43
2023-03-10T20:08:50.062Z,40.80
2023-03-10T20:11:17.994Z,41.60
2023-03-10T20:13:45.919Z,41.06
2023-03-10T20:16:14.617Z,41.87
2023-03-10T20:18:44.464Z,41.83
2023-03-10T20:21:11.090Z,41.69
2023-03-10T20:23:37.734Z,42.13
2023-03-10T20:26:09.159Z,42.42
2023-03-10T20:28:37.164Z,42.80
2023-03-10T20:31:03.792Z,42.10
2023-03-10T20:33:31.530Z,42.47
2023-03-10T20:35:58.209Z,42.32
2023-03-10T20:38:24.754Z,42.27
2023-03-10T20:40:54.375Z,42.29
2023-03-10T20:43:21.293Z,42.34
2023-03-10T20:45:51.765Z,42.51
2023-03-10T20:48:18.408Z,41.91
2023-03-10T20:50:53.153Z,42.15
2023-03-10T20:53:19.688Z,42.33
2023-03-10T20:55:46.222Z,42.08
2023-03-10T20:58:12.874Z,42.29
2023-03-10T21:00:39.475Z,41.78
2023-03-10T21:03:06.015Z,42.41
2023-03-10T21:05:32.606Z,42.17
2023-03-10T21:07:59.188Z,42.06
2023-03-10T21:10:26.542Z,42.06
2023-03-10T21:12:53.438Z,42.38
2023-03-10T21:15:20.345Z,42.20
2023-03-10T21:17:47.739Z,42.23
2023-03-10T21:20:21.328Z,42.29
2023-03-10T21:22:48.762Z,42.54
2023-03-10T21:25:20.151Z,42.42
2023-03-10T21:27:49.454Z,42.42
2023-03-10T21:30:17.164Z,42.83
2023-03-10T21:32:43.818Z,42.45
2023-03-10T21:35:13.827Z,42.65
2023-03-10T21:37:42.290Z,42.46
2023-03-10T21:40:11.952Z,42.52
2023-03-10T21:42:38.488Z,41.96
2023-03-10T21:45:06.025Z,42.52
2023-03-10T21:47:32.665Z,42.31
2023-03-10T21:49:59.183Z,42.82
2023-03-10T21:52:26.300Z,42.45
2023-03-10T21:54:52.932Z,42.50
2023-03-10T21:57:19.519Z,42.51
2023-03-10T21:59:46.099Z,42.54
2023-03-10T22:02:27.965Z,42.52
2023-03-10T22:04:54.730Z,42.68
2023-03-10T22:07:21.320Z,42.65
2023-03-10T22:09:48.057Z,42.46
2023-03-10T22:12:14.805Z,42.62
2023-03-10T22:14:41.793Z,42.32
2023-03-10T22:17:08.856Z,42.48
2023-03-10T22:19:35.418Z,42.75
2023-03-10T22:22:02.626Z,42.65
2023-03-10T22:24:29.216Z,43.28
2023-03-10T22:26:55.736Z,42.49
2023-03-10T22:29:22.588Z,42.40
2023-03-10T22:31:56.112Z,42.42
2023-03-10T22:34:22.815Z,42.49
2023-03-10T22:36:49.326Z,42.33
2023-03-10T22:39:15.839Z,42.63
2023-03-10T22:41:42.642Z,42.43
2023-03-10T22:44:09.199Z,42.32
2023-03-10T22:46:38.804Z,42.64
2023-03-10T22:49:05.380Z,42.61
2023-03-10T22:51:31.883Z,43.01
2023-03-10T22:53:58.438Z,42.69
2023-03-10T22:56:24.945Z,42.80
2023-03-10T22:58:54.093Z,42.92
2023-03-10T23:01:23.348Z,42.90
2023-03-10T23:03:49.902Z,43.02
2023-03-10T23:06:16.895Z,42.84
2023-03-10T23:08:43.916Z,43.26
2023-03-10T23:11:12.721Z,43.75
2023-03-10T23:13:39.789Z,43.33
2023-03-10T23:16:07.184Z,43.74
2023-03-10T23:18:33.758Z,43.36
2023-03-10T23:21:00.411Z,43.22
2023-03-10T23:23:27.198Z,43.60
2023-03-10T23:25:54.027Z,43.83
2023-03-10T23:28:21.672Z,43.88
2023-03-10T23:30:49.375Z,43.47
2023-03-10T23:33:18.551Z,44.22
2023-03-10T23:35:53.539Z,43.81
2023-03-10T23:38:22.362Z,43.61
2023-03-10T23:40:49.468Z,44.30
2023-03-10T23:43:16.170Z,43.61
2023-03-10T23:45:43.202Z,44.66
2023-03-10T23:48:15.949Z,43.68
2023-03-10T23:50:45.126Z,44.53
2023-03-10T23:53:13.203Z,44.02
2023-03-10T23:55:41.860Z,43.86
2023-03-10T23:58:09.431Z,44.64
